Time;durP1;ratioP1;P1;durP2;ratioP2;P2;SDS_P1;SDS_P2;PMS_P1;PMS_P2;Temp;Humidity;BMP_temperature;BMP_pressure;BME280_temperature;BME280_humidity;BME280_pressure;Samples;Min_cycle;Max_cycle;Signal;HPM_P1;HPM_P2
2021/03/31 00:05:17;;;;;;;;;;;;;;;;;;5509460;23;19940;-85
2021/03/31 00:10:56;;;;;;;;;;;;;;;;;;5098456;28;19907;-84
2021/03/31 00:13:42;;;;;;;;;;;;;;;;;;5100227;28;19920;-84
2021/03/31 00:16:11;;;;;;;;;;;;;;;;;;5073534;28;20234;-83
2021/03/31 00:18:46;;;;;;;;;;;;;;;;;;5095347;28;19908;-85
2021/03/31 00:21:12;;;;;;;;;;;;;;;;;;5073938;28;19922;-85
2021/03/31 00:23:59;;;;;;;;;;;;;;;;;;5087125;28;19900;-85
2021/03/31 00:32:09;;;;;;;;;;;;;;;;;;5106798;28;19965;-84
2021/03/31 00:40:22;;;;;;;;;;;;;;;;;;5073363;28;19971;-84
2021/03/31 00:43:09;;;;;;;;;;;;;;;;;;5071518;28;20007;-83
2021/03/31 00:45:39;;;;;;;;;;;;;;;;;;5069068;28;19917;-84
2021/03/31 00:56:27;;;;;;;;;;;;;;;;;;5102433;23;19909;-84
2021/03/31 01:01:52;;;;;;;;;;;;;;;;;;5099999;28;19911;-84
2021/03/31 01:04:19;;;;;;;;;;;;;;;;;;5098545;28;19924;-85
2021/03/31 01:07:05;;;;;;;;;;;;;;;;;;5095327;28;19923;-87
2021/03/31 01:14:57;;;;;;;;;;;;;;;;;;5161508;22;19909;-84
2021/03/31 01:20:15;;;;;;;;;;;;;;;;;;5042678;28;19916;-84
2021/03/31 01:22:51;;;;;;;;;;;;;;;;;;5026711;28;19928;-84
2021/03/31 01:25:33;;;;;;;;;;;;;;;;;;5046144;28;19924;-85
2021/03/31 01:28:05;;;;;;;;;;;;;;;;;;5038228;28;20546;-84
2021/03/31 01:36:39;;;;;;;;;;;;;;;;;;5042356;28;19925;-84
2021/03/31 01:42:02;;;;;;;;;;;;;;;;;;5719964;22;19910;-84
2021/03/31 01:44:38;;;;;;;;;;;;;;;;;;5115520;23;19929;-86
2021/03/31 01:47:24;;;;;;;;;;;;;;;;;;5056377;28;19901;-84
2021/03/31 02:03:49;;;;;;;;;;;;;;;;;;5097042;28;19907;-85
2021/03/31 02:12:13;;;;;;;;;;;;;;;;;;5055765;28;19916;-84
2021/03/31 05:27:42;;;;;;;;;;;;;;;;;;5083565;28;19919;-87
2021/03/31 05:30:11;;;;;;;;;;;;;;;;;;5093473;28;19919;-86
2021/03/31 05:32:37;;;;;;;;;;;;;;;;;;5058787;28;19975;-87
2021/03/31 05:35:03;;;;;;;;;;;;;;;;;;5039048;28;19920;-88
2021/03/31 05:37:29;;;;;;;;;;;;;;;;;;5045701;28;19924;-89
2021/03/31 05:39:55;;;;;;;;;;;;;;;;;;5044106;28;19916;-87
2021/03/31 05:42:21;;;;;;;;;;;;;;;;;;5039271;28;19959;-86
2021/03/31 05:44:47;;;;;;;;;;;;;;;;;;5041195;28;19979;-87
2021/03/31 05:47:35;;;;;;;;;;;;;;;;;;5037701;28;19916;-87
2021/03/31 05:50:01;;;;;;;;;;;;;;;;;;5059184;28;19966;-86
2021/03/31 05:52:27;;;;;;;;;;;;;;;;;;5060791;28;20382;-85
2021/03/31 05:54:53;;;;;;;;;;;;;;;;;;5037545;28;20362;-85
2021/03/31 05:57:19;;;;;;;;;;;;;;;;;;5056825;28;19924;-85
2021/03/31 05:59:45;;;;;;;;;;;;;;;;;;5060655;28;19924;-86
2021/03/31 06:02:11;;;;;;;;;;;;;;;;;;5056967;28;19916;-85
2021/03/31 06:04:37;;;;;;;;;;;;;;;;;;5035579;28;19916;-86
2021/03/31 06:07:04;;;;;;;;;;;;;;;;;;5054126;28;19916;-86
2021/03/31 06:09:30;;;;;;;;;;;;;;;;;;5050982;28;19955;-86
2021/03/31 06:12:00;;;;;;;;;;;;;;;;;;5034295;28;19972;-87
2021/03/31 06:14:26;;;;;;;;;;;;;;;;;;5037368;28;20383;-87
2021/03/31 06:16:52;;;;;;;;;;;;;;;;;;5038216;28;19968;-87
2021/03/31 06:19:19;;;;;;;;;;;;;;;;;;5038239;28;20401;-87
2021/03/31 06:21:45;;;;;;;;;;;;;;;;;;5050435;28;20046;-87
2021/03/31 06:24:17;;;;;;;;;;;;;;;;;;5038200;28;19920;-86
2021/03/31 06:26:43;;;;;;;;;;;;;;;;;;5037888;28;19964;-87
2021/03/31 06:29:10;;;;;;;;;;;;;;;;;;5061324;28;19923;-87
2021/03/31 06:31:36;;;;;;;;;;;;;;;;;;5038195;28;19913;-87
2021/03/31 06:34:03;;;;;;;;;;;;;;;;;;5038007;28;19921;-87
2021/03/31 06:36:29;;;;;;;;;;;;;;;;;;5040892;28;19923;-87
2021/03/31 06:38:55;;;;;;;;;;;;;;;;;;5039493;28;19932;-87
2021/03/31 06:41:29;;;;;;;;;;;;;;;;;;5037562;28;19920;-87
2021/03/31 06:44:00;;;;;;;;;;;;;;;;;;5051343;28;20402;-88
2021/03/31 06:46:51;;;;;;;;;;;;;;;;;;5054333;28;19974;-88
2021/03/31 06:49:13;;;;;;;;;;;;;;;;;;5052191;28;20257;-87
2021/03/31 06:51:39;;;;;;;;;;;;;;;;;;5038871;28;19925;-89
2021/03/31 06:54:05;;;;;;;;;;;;;;;;;;5033101;28;20007;-89
2021/03/31 06:56:31;;;;;;;;;;;;;;;;;;5038504;28;20024;-88
2021/03/31 06:58:58;;;;;;;;;;;;;;;;;;5054310;28;20002;-88
2021/03/31 07:01:28;;;;;;;;;;;;;;;;;;5042460;28;19917;-88
2021/03/31 07:03:54;;;;;;;;;;;;;;;;;;5041715;28;20376;-87
2021/03/31 07:06:20;;;;;;;;;;;;;;;;;;5042363;28;19917;-87
2021/03/31 07:08:47;;;;;;;;;;;;;;;;;;5039778;28;19919;-86
2021/03/31 07:11:13;;;;;;;;;;;;;;;;;;5048695;28;20278;-87
2021/03/31 07:13:39;;;;;;;;;;;;;;;;;;5064184;28;19924;-89
2021/03/31 07:16:05;;;;;;;;;;;;;;;;;;5039112;28;19913;-86
2021/03/31 07:18:31;;;;;;;;;;;;;;;;;;5042074;28;19925;-87
2021/03/31 07:20:57;;;;;;;;;;;;;;;;;;5044082;28;19916;-87
2021/03/31 07:23:24;;;;;;;;;;;;;;;;;;5044051;28;19916;-87
2021/03/31 07:25:53;;;;;;;;;;;;;;;;;;5050268;28;20964;-88
2021/03/31 07:28:19;;;;;;;;;;;;;;;;;;5063241;28;19967;-89
2021/03/31 07:33:39;;;;;;;;;;;;;;;;;;5041123;28;19912;-91
2021/03/31 07:36:07;;;;;;;;;;;;;;;;;;5042068;28;19916;-92
2021/03/31 07:38:36;;;;;;;;;;;;;;;;;;5076469;28;19920;-92
2021/03/31 07:41:02;;;;;;;;;;;;;;;;;;5057546;28;19916;-91
2021/03/31 07:43:28;;;;;;;;;;;;;;;;;;5051862;28;19991;-91
2021/03/31 07:45:54;;;;;;;;;;;;;;;;;;5067971;28;19916;-92
2021/03/31 07:48:23;;;;;;;;;;;;;;;;;;5051097;28;20027;-90
2021/03/31 07:50:51;;;;;;;;;;;;;;;;;;5052023;28;19928;-91
2021/03/31 07:53:17;;;;;;;;;;;;;;;;;;5051453;28;19952;-91
2021/03/31 07:55:43;;;;;;;;;;;;;;;;;;5071959;28;19921;-90
2021/03/31 07:58:09;;;;;;;;;;;;;;;;;;5054335;28;20474;-91
2021/03/31 08:00:35;;;;;;;;;;;;;;;;;;5073805;28;20364;-90
2021/03/31 08:03:02;;;;;;;;;;;;;;;;;;5067815;28;19912;-90
2021/03/31 08:05:31;;;;;;;;;;;;;;;;;;5048979;28;19921;-92
2021/03/31 08:07:57;;;;;;;;;;;;;;;;;;5047346;28;19921;-91
2021/03/31 08:10:23;;;;;;;;;;;;;;;;;;5049997;28;20015;-91
2021/03/31 08:12:50;;;;;;;;;;;;;;;;;;5062749;28;19916;-93
2021/03/31 08:15:16;;;;;;;;;;;;;;;;;;5051000;28;19972;-91
2021/03/31 08:17:42;;;;;;;;;;;;;;;;;;5051411;28;20013;-91
2021/03/31 08:20:09;;;;;;;;;;;;;;;;;;5050622;28;19979;-91
2021/03/31 08:22:37;;;;;;;;;;;;;;;;;;5047730;28;20639;-89
2021/03/31 08:25:09;;;;;;;;;;;;;;;;;;5065036;28;19920;-92
2021/03/31 08:27:52;;;;;;;;;;;;;;;;;;5067358;28;20732;-90
2021/03/31 08:30:18;;;;;;;;;;;;;;;;;;5049559;28;19913;-90
2021/03/31 08:32:44;;;;;;;;;;;;;;;;;;5051871;28;19913;-90
2021/03/31 08:35:13;;;;;;;;;;;;;;;;;;5055349;28;19925;-90
2021/03/31 08:37:41;;;;;;;;;;;;;;;;;;5054265;28;19925;-90
2021/03/31 08:40:07;;;;;;;;;;;;;;;;;;5044380;28;19980;-90
2021/03/31 08:42:33;;;;;;;;;;;;;;;;;;5046055;28;19917;-90
2021/03/31 08:45:03;;;;;;;;;;;;;;;;;;5053210;28;19990;-91
2021/03/31 08:47:32;;;;;;;;;;;;;;;;;;5038508;28;19917;-90
2021/03/31 08:49:58;;;;;;;;;;;;;;;;;;5048461;28;20344;-91
2021/03/31 08:52:25;;;;;;;;;;;;;;;;;;5046090;28;20372;-91
2021/03/31 08:54:53;;;;;;;;;;;;;;;;;;5048228;28;19916;-90
2021/03/31 08:57:19;;;;;;;;;;;;;;;;;;5053384;28;20292;-91
2021/03/31 08:59:49;;;;;;;;;;;;;;;;;;5042321;28;19999;-91
2021/03/31 09:02:15;;;;;;;;;;;;;;;;;;5066572;28;19920;-90
2021/03/31 09:04:41;;;;;;;;;;;;;;;;;;5063645;28;19917;-90
2021/03/31 09:07:07;;;;;;;;;;;;;;;;;;5045810;28;19970;-90
2021/03/31 09:09:33;;;;;;;;;;;;;;;;;;5044096;28;19971;-90
2021/03/31 09:11:59;;;;;;;;;;;;;;;;;;5044337;28;20484;-90
2021/03/31 09:14:25;;;;;;;;;;;;;;;;;;5059757;28;19955;-90
2021/03/31 09:16:51;;;;;;;;;;;;;;;;;;5035841;28;19937;-90
2021/03/31 09:19:17;;;;;;;;;;;;;;;;;;5042358;28;19966;-90
2021/03/31 09:21:43;;;;;;;;;;;;;;;;;;5034136;28;19959;-90
2021/03/31 09:24:13;;;;;;;;;;;;;;;;;;5040477;28;19927;-90
2021/03/31 09:26:39;;;;;;;;;;;;;;;;;;5033294;28;19916;-89
2021/03/31 09:29:05;;;;;;;;;;;;;;;;;;5044370;28;20440;-91
2021/03/31 09:31:32;;;;;;;;;;;;;;;;;;5040534;28;19973;-90
2021/03/31 09:33:58;;;;;;;;;;;;;;;;;;5043931;28;19917;-90
2021/03/31 09:36:23;;;;;;;;;;;;;;;;;;5041117;28;19955;-90
2021/03/31 09:38:49;;;;;;;;;;;;;;;;;;5041958;28;19984;-90
2021/03/31 09:41:15;;;;;;;;;;;;;;;;;;5047681;28;19991;-91
2021/03/31 09:43:42;;;;;;;;;;;;;;;;;;5041880;28;19960;-90
2021/03/31 09:46:08;;;;;;;;;;;;;;;;;;5041439;28;19913;-91
2021/03/31 09:48:34;;;;;;;;;;;;;;;;;;5048233;28;20018;-91
2021/03/31 09:51:00;;;;;;;;;;;;;;;;;;5040277;28;19951;-91
2021/03/31 09:53:26;;;;;;;;;;;;;;;;;;5044954;28;20325;-90
2021/03/31 09:55:52;;;;;;;;;;;;;;;;;;5043330;28;19912;-90
2021/03/31 09:58:18;;;;;;;;;;;;;;;;;;5040092;28;19920;-90
2021/03/31 10:00:44;;;;;;;;;;;;;;;;;;5041378;28;19960;-91
2021/03/31 10:03:10;;;;;;;;;;;;;;;;;;5038530;28;19916;-90
2021/03/31 10:05:36;;;;;;;;;;;;;;;;;;5043100;28;19921;-90
2021/03/31 10:08:03;;;;;;;;;;;;;;;;;;5044781;28;19928;-90
2021/03/31 10:10:29;;;;;;;;;;;;;;;;;;5047311;28;19912;-90
2021/03/31 10:12:55;;;;;;;;;;;;;;;;;;5042110;28;19924;-90
2021/03/31 10:15:21;;;;;;;;;;;;;;;;;;5046498;28;20318;-92
2021/03/31 10:17:47;;;;;;;;;;;;;;;;;;5046498;28;19916;-90
2021/03/31 10:20:14;;;;;;;;;;;;;;;;;;5051159;28;19966;-90
2021/03/31 10:22:40;;;;;;;;;;;;;;;;;;5041676;28;19917;-91
2021/03/31 10:25:06;;;;;;;;;;;;;;;;;;5046234;28;19931;-91
2021/03/31 10:27:32;;;;;;;;;;;;;;;;;;5067472;28;19912;-90
2021/03/31 10:29:59;;;;;;;;;;;;;;;;;;5045573;28;19916;-90
2021/03/31 10:32:25;;;;;;;;;;;;;;;;;;5047436;28;19917;-91
2021/03/31 10:34:52;;;;;;;;;;;;;;;;;;5046464;28;19916;-90
2021/03/31 10:37:22;;;;;;;;;;;;;;;;;;5059038;28;20002;-91
2021/03/31 10:53:19;;;;;;;;;;;;;;;;;;5063733;28;19946;-89
2021/03/31 10:55:46;;;;;;;;;;;;;;;;;;5041661;28;19920;-93
2021/03/31 10:58:12;;;;;;;;;;;;;;;;;;5044679;28;20204;-91
2021/03/31 11:00:39;;;;;;;;;;;;;;;;;;5046314;28;19921;-91
2021/03/31 11:03:05;;;;;;;;;;;;;;;;;;5044116;28;19917;-92
2021/03/31 11:05:31;;;;;;;;;;;;;;;;;;5043571;28;19916;-92
2021/03/31 11:07:57;;;;;;;;;;;;;;;;;;5043261;28;19924;-92
2021/03/31 11:10:30;;;;;;;;;;;;;;;;;;5054340;28;19951;-93
2021/03/31 11:12:56;;;;;;;;;;;;;;;;;;5075467;28;19939;-93
2021/03/31 11:15:24;;;;;;;;;;;;;;;;;;5059438;28;19925;-93
2021/03/31 11:26:01;;;;;;;;;;;;;;;;;;5079716;28;19928;-93
2021/03/31 11:28:29;;;;;;;;;;;;;;;;;;5052718;28;19932;-92
2021/03/31 11:30:56;;;;;;;;;;;;;;;;;;5049176;28;19913;-93
2021/03/31 11:33:37;;;;;;;;;;;;;;;;;;5045427;28;19916;-94
2021/03/31 11:38:57;;;;;;;;;;;;;;;;;;5063663;28;20048;-91
2021/03/31 11:47:09;;;;;;;;;;;;;;;;;;5060255;28;19927;-90
2021/03/31 11:49:35;;;;;;;;;;;;;;;;;;5059411;28;19920;-89
2021/03/31 11:52:01;;;;;;;;;;;;;;;;;;5062461;28;20442;-93
2021/03/31 11:54:27;;;;;;;;;;;;;;;;;;5047962;28;19917;-89
2021/03/31 11:56:53;;;;;;;;;;;;;;;;;;5044272;28;19916;-87
2021/03/31 11:59:19;;;;;;;;;;;;;;;;;;5040275;28;19912;-88
2021/03/31 12:01:48;;;;;;;;;;;;;;;;;;5056466;28;19913;-93
2021/03/31 12:04:15;;;;;;;;;;;;;;;;;;5056420;28;19963;-90
2021/03/31 12:06:42;;;;;;;;;;;;;;;;;;5040618;28;19927;-91
2021/03/31 12:09:09;;;;;;;;;;;;;;;;;;5047365;28;19917;-91
2021/03/31 12:11:36;;;;;;;;;;;;;;;;;;5062781;28;19913;-91
2021/03/31 12:14:02;;;;;;;;;;;;;;;;;;5048091;28;21831;-89
2021/03/31 12:16:28;;;;;;;;;;;;;;;;;;5052025;28;19974;-90
2021/03/31 12:18:54;;;;;;;;;;;;;;;;;;5049705;28;19919;-91
2021/03/31 12:21:21;;;;;;;;;;;;;;;;;;5045258;28;20011;-91
2021/03/31 12:23:47;;;;;;;;;;;;;;;;;;5043811;28;19921;-90
2021/03/31 12:26:14;;;;;;;;;;;;;;;;;;5063467;28;19917;-91
2021/03/31 12:28:47;;;;;;;;;;;;;;;;;;5048249;28;19929;-91
2021/03/31 12:31:13;;;;;;;;;;;;;;;;;;5065761;28;20031;-91
2021/03/31 12:33:42;;;;;;;;;;;;;;;;;;5050462;28;19916;-92
2021/03/31 12:36:08;;;;;;;;;;;;;;;;;;5043246;28;20009;-91
2021/03/31 12:38:34;;;;;;;;;;;;;;;;;;5042230;28;19912;-92
2021/03/31 12:41:00;;;;;;;;;;;;;;;;;;5041055;28;20367;-90
2021/03/31 12:43:26;;;;;;;;;;;;;;;;;;5047387;28;19919;-92
2021/03/31 12:45:52;;;;;;;;;;;;;;;;;;5055770;28;20392;-90
2021/03/31 12:48:19;;;;;;;;;;;;;;;;;;5045440;28;19970;-90
2021/03/31 12:50:46;;;;;;;;;;;;;;;;;;5043879;28;19994;-93
2021/03/31 12:55:43;;;;;;;;;;;;;;;;;;5062238;28;19920;-92
2021/03/31 12:58:12;;;;;;;;;;;;;;;;;;5043623;28;19919;-92
2021/03/31 13:00:38;;;;;;;;;;;;;;;;;;5060663;28;19922;-92
2021/03/31 13:03:04;;;;;;;;;;;;;;;;;;5041923;28;20008;-92
2021/03/31 13:05:31;;;;;;;;;;;;;;;;;;5043726;28;20407;-92
2021/03/31 13:07:57;;;;;;;;;;;;;;;;;;5040981;28;19916;-91
2021/03/31 13:10:25;;;;;;;;;;;;;;;;;;5045539;28;19970;-90
2021/03/31 13:12:58;;;;;;;;;;;;;;;;;;;;;
2021/03/31 13:23:18;;;;;;;;;;;;;;;;;;5056540;28;19912;-92
2021/03/31 13:25:48;;;;;;;;;;;;;;;;;;5043108;28;19985;-92
2021/03/31 13:31:14;;;;;;;;;;;;;;;;;;5062261;28;20374;-93
2021/03/31 13:33:44;;;;;;;;;;;;;;;;;;5045235;28;19913;-93
2021/03/31 13:36:20;;;;;;;;;;;;;;;;;;5047662;28;19952;-93
2021/03/31 13:41:12;;;;;;;;;;;;;;;;;;5060046;28;19969;-93
2021/03/31 13:43:38;;;;;;;;;;;;;;;;;;5046711;28;19966;-93
2021/03/31 13:46:04;;;;;;;;;;;;;;;;;;5046095;28;19951;-93
2021/03/31 13:50:58;;;;;;;;;;;;;;;;;;5059056;28;22447;-92
2021/03/31 13:53:24;;;;;;;;;;;;;;;;;;5046450;28;19932;-93
2021/03/31 13:55:51;;;;;;;;;;;;;;;;;;5046893;28;19917;-93
2021/03/31 13:58:17;;;;;;;;;;;;;;;;;;5038500;28;19912;-93
2021/03/31 14:00:43;;;;;;;;;;;;;;;;;;5042960;28;20344;-93
2021/03/31 14:03:09;;;;;;;;;;;;;;;;;;5039876;28;20341;-93
2021/03/31 14:05:35;;;;;;;;;;;;;;;;;;5043852;28;20268;-92
2021/03/31 14:08:01;;;;;;;;;;;;;;;;;;5041420;28;19966;-92
2021/03/31 14:10:28;;;;;;;;;;;;;;;;;;5059777;28;19920;-92
2021/03/31 14:12:56;;;;;;;;;;;;;;;;;;5044185;28;19913;-92
2021/03/31 14:15:22;;;;;;;;;;;;;;;;;;5039629;28;19960;-91
2021/03/31 14:17:49;;;;;;;;;;;;;;;;;;5056104;28;19924;-92
2021/03/31 14:20:15;;;;;;;;;;;;;;;;;;5043265;28;20266;-91
2021/03/31 14:22:41;;;;;;;;;;;;;;;;;;5040629;28;19917;-91
2021/03/31 14:25:07;;;;;;;;;;;;;;;;;;5040186;28;19924;-91
2021/03/31 14:27:33;;;;;;;;;;;;;;;;;;5038950;28;19944;-91
2021/03/31 14:29:59;;;;;;;;;;;;;;;;;;5045731;28;19913;-89
2021/03/31 14:32:26;;;;;;;;;;;;;;;;;;5042979;28;19928;-90
2021/03/31 14:34:52;;;;;;;;;;;;;;;;;;5037624;28;19916;-91
2021/03/31 14:37:18;;;;;;;;;;;;;;;;;;5043987;28;19971;-91
2021/03/31 14:39:45;;;;;;;;;;;;;;;;;;5040245;28;19952;-90
2021/03/31 14:42:11;;;;;;;;;;;;;;;;;;5045114;28;20010;-90
2021/03/31 14:44:37;;;;;;;;;;;;;;;;;;5040990;28;19917;-88
2021/03/31 14:47:03;;;;;;;;;;;;;;;;;;5044753;28;19924;-90
2021/03/31 14:49:30;;;;;;;;;;;;;;;;;;5044042;28;20388;-90
2021/03/31 14:57:34;;;;;;;;;;;;;;;;;;5067762;28;19919;-90
2021/03/31 15:00:00;;;;;;;;;;;;;;;;;;5042670;28;20311;-92
2021/03/31 15:02:27;;;;;;;;;;;;;;;;;;5041052;28;19917;-91
2021/03/31 15:04:53;;;;;;;;;;;;;;;;;;5040929;28;20341;-92
2021/03/31 15:07:19;;;;;;;;;;;;;;;;;;5043208;28;20391;-90
2021/03/31 15:09:45;;;;;;;;;;;;;;;;;;5045649;28;19928;-91
2021/03/31 15:12:11;;;;;;;;;;;;;;;;;;5042178;28;19917;-91
2021/03/31 15:14:37;;;;;;;;;;;;;;;;;;5041659;28;19913;-92
2021/03/31 15:17:05;;;;;;;;;;;;;;;;;;5042408;28;19927;-92
2021/03/31 15:19:38;;;;;;;;;;;;;;;;;;;;;
2021/03/31 15:24:46;;;;;;;;;;;;;;;;;;5068500;28;19978;-91
2021/03/31 15:27:12;;;;;;;;;;;;;;;;;;5043831;28;19916;-92
2021/03/31 15:29:38;;;;;;;;;;;;;;;;;;5065270;28;19917;-92
2021/03/31 15:32:04;;;;;;;;;;;;;;;;;;5045610;28;20006;-92
2021/03/31 15:34:33;;;;;;;;;;;;;;;;;;5049956;28;19913;-91
2021/03/31 15:36:59;;;;;;;;;;;;;;;;;;5061582;28;19916;-92
2021/03/31 15:39:25;;;;;;;;;;;;;;;;;;5043924;28;19933;-91
2021/03/31 15:41:56;;;;;;;;;;;;;;;;;;5045596;28;19985;-91
2021/03/31 15:44:22;;;;;;;;;;;;;;;;;;5052733;28;19923;-92
2021/03/31 15:47:02;;;;;;;;;;;;;;;;;;5046986;28;19924;-91
2021/03/31 15:49:28;;;;;;;;;;;;;;;;;;5045597;28;19917;-92
2021/03/31 15:51:54;;;;;;;;;;;;;;;;;;5045670;28;20367;-89
2021/03/31 15:54:21;;;;;;;;;;;;;;;;;;5045176;28;20398;-89
2021/03/31 15:56:47;;;;;;;;;;;;;;;;;;5040041;28;19919;-89
2021/03/31 15:59:13;;;;;;;;;;;;;;;;;;5041176;28;19912;-89
2021/03/31 16:01:39;;;;;;;;;;;;;;;;;;5041796;28;20498;-90
2021/03/31 16:04:08;;;;;;;;;;;;;;;;;;5042168;28;19981;-91
2021/03/31 16:09:19;;;;;;;;;;;;;;;;;;5063122;28;19971;-92
2021/03/31 16:11:45;;;;;;;;;;;;;;;;;;5049211;28;20042;-91
2021/03/31 16:14:11;;;;;;;;;;;;;;;;;;5048114;28;19920;-91
2021/03/31 16:16:37;;;;;;;;;;;;;;;;;;5042564;28;19920;-91
2021/03/31 16:22:09;;;;;;;;;;;;;;;;;;5065881;28;19941;-93
2021/03/31 16:24:44;;;;;;;;;;;;;;;;;;5056474;28;19920;-92
2021/03/31 16:27:10;;;;;;;;;;;;;;;;;;5043784;28;19970;-90
2021/03/31 16:29:53;;;;;;;;;;;;;;;;;;5044525;28;20394;-91
2021/03/31 16:32:19;;;;;;;;;;;;;;;;;;5040091;28;19920;-90
2021/03/31 16:34:46;;;;;;;;;;;;;;;;;;5059394;28;19912;-93
2021/03/31 16:37:12;;;;;;;;;;;;;;;;;;5051309;28;20287;-93
2021/03/31 16:39:38;;;;;;;;;;;;;;;;;;5042037;28;19923;-91
2021/03/31 16:42:06;;;;;;;;;;;;;;;;;;5051051;28;19962;-91
2021/03/31 16:47:29;;;;;;;;;;;;;;;;;;5048104;28;20007;-92
2021/03/31 16:50:03;;;;;;;;;;;;;;;;;;5064133;28;19916;-93
2021/03/31 16:52:32;;;;;;;;;;;;;;;;;;5045628;28;19917;-92
2021/03/31 16:54:58;;;;;;;;;;;;;;;;;;5048070;28;19926;-92
2021/03/31 16:57:28;;;;;;;;;;;;;;;;;;5048644;28;19917;-92
2021/03/31 16:59:54;;;;;;;;;;;;;;;;;;5045262;28;20011;-91
2021/03/31 17:02:26;;;;;;;;;;;;;;;;;;5045135;28;20382;-91
2021/03/31 17:05:02;;;;;;;;;;;;;;;;;;5043489;28;19917;-91
2021/03/31 17:07:50;;;;;;;;;;;;;;;;;;5042209;28;19960;-92
2021/03/31 17:10:16;;;;;;;;;;;;;;;;;;5061205;28;19920;-91
2021/03/31 17:12:51;;;;;;;;;;;;;;;;;;5047782;28;19920;-92
2021/03/31 17:15:17;;;;;;;;;;;;;;;;;;5048932;28;19921;-92
2021/03/31 17:17:46;;;;;;;;;;;;;;;;;;5048029;28;19920;-94
2021/03/31 17:20:14;;;;;;;;;;;;;;;;;;5044517;28;19912;-92
2021/03/31 17:23:01;;;;;;;;;;;;;;;;;;5039519;28;20413;-92
2021/03/31 17:25:26;;;;;;;;;;;;;;;;;;5075726;28;19924;-92
2021/03/31 17:27:52;;;;;;;;;;;;;;;;;;5063835;28;20002;-92
2021/03/31 17:30:21;;;;;;;;;;;;;;;;;;5043521;28;20467;-91
2021/03/31 17:32:50;;;;;;;;;;;;;;;;;;5051578;28;20292;-94
2021/03/31 17:35:17;;;;;;;;;;;;;;;;;;5051112;28;19939;-93
2021/03/31 17:37:43;;;;;;;;;;;;;;;;;;5046520;28;19952;-94
2021/03/31 17:40:13;;;;;;;;;;;;;;;;;;5050901;28;19939;-95
2021/03/31 17:42:40;;;;;;;;;;;;;;;;;;5048523;28;20358;-93
2021/03/31 17:45:06;;;;;;;;;;;;;;;;;;5044583;28;19913;-94
2021/03/31 17:47:35;;;;;;;;;;;;;;;;;;5046822;28;19935;-95
2021/03/31 17:50:05;;;;;;;;;;;;;;;;;;5047312;28;19912;-93
2021/03/31 17:52:34;;;;;;;;;;;;;;;;;;5054256;28;20318;-94
2021/03/31 17:55:00;;;;;;;;;;;;;;;;;;5045727;28;19974;-93
2021/03/31 17:57:26;;;;;;;;;;;;;;;;;;5050941;28;19919;-93
2021/03/31 17:59:52;;;;;;;;;;;;;;;;;;5051356;28;19919;-92
2021/03/31 18:02:29;;;;;;;;;;;;;;;;;;5053678;28;20394;-92
2021/03/31 18:04:55;;;;;;;;;;;;;;;;;;5048033;28;19913;-92
2021/03/31 18:07:21;;;;;;;;;;;;;;;;;;5050327;28;20016;-95
2021/03/31 18:09:51;;;;;;;;;;;;;;;;;;5045086;28;19913;-92
2021/03/31 18:12:26;;;;;;;;;;;;;;;;;;5046600;28;19913;-92
2021/03/31 18:14:52;;;;;;;;;;;;;;;;;;5044966;28;19920;-91
2021/03/31 18:17:18;;;;;;;;;;;;;;;;;;5048738;28;19921;-90
2021/03/31 18:19:44;;;;;;;;;;;;;;;;;;5053094;28;20003;-90
2021/03/31 18:22:11;;;;;;;;;;;;;;;;;;5039700;28;20438;-91
2021/03/31 18:24:39;;;;;;;;;;;;;;;;;;5041692;28;19922;-90
2021/03/31 18:27:08;;;;;;;;;;;;;;;;;;5054382;28;19938;-90
2021/03/31 18:29:34;;;;;;;;;;;;;;;;;;5046885;28;20438;-90
2021/03/31 18:32:00;;;;;;;;;;;;;;;;;;5039693;28;21110;-89
2021/03/31 18:34:28;;;;;;;;;;;;;;;;;;5043346;28;20006;-88
2021/03/31 18:36:54;;;;;;;;;;;;;;;;;;5061453;28;19923;-90
2021/03/31 18:39:20;;;;;;;;;;;;;;;;;;5044009;28;19920;-91
2021/03/31 18:44:16;;;;;;;;;;;;;;;;;;5060736;28;19916;-90
2021/03/31 18:46:45;;;;;;;;;;;;;;;;;;5054853;28;19917;-90
2021/03/31 18:49:13;;;;;;;;;;;;;;;;;;5053009;28;19924;-90
2021/03/31 18:51:42;;;;;;;;;;;;;;;;;;5041564;28;19916;-90
2021/03/31 18:54:08;;;;;;;;;;;;;;;;;;5040016;28;19920;-90
2021/03/31 18:56:45;;;;;;;;;;;;;;;;;;5063836;28;19920;-90
2021/03/31 18:59:14;;;;;;;;;;;;;;;;;;5041679;28;20360;-90
2021/03/31 19:01:43;;;;;;;;;;;;;;;;;;5044030;28;19924;-91
2021/03/31 19:04:11;;;;;;;;;;;;;;;;;;5043544;28;19951;-91
2021/03/31 19:06:39;;;;;;;;;;;;;;;;;;5044784;28;20364;-91
2021/03/31 19:11:52;;;;;;;;;;;;;;;;;;5059946;28;19938;-91
2021/03/31 19:14:20;;;;;;;;;;;;;;;;;;5056654;28;19916;-93
2021/03/31 19:16:49;;;;;;;;;;;;;;;;;;5057279;28;19919;-92
2021/03/31 19:19:15;;;;;;;;;;;;;;;;;;5046039;28;19922;-92
2021/03/31 19:21:44;;;;;;;;;;;;;;;;;;5043602;28;19913;-92
2021/03/31 19:24:11;;;;;;;;;;;;;;;;;;5064897;28;19921;-92
2021/03/31 19:26:37;;;;;;;;;;;;;;;;;;5047730;28;19948;-93
2021/03/31 19:29:03;;;;;;;;;;;;;;;;;;5043091;28;19920;-92
2021/03/31 19:31:29;;;;;;;;;;;;;;;;;;5045823;28;19923;-92
2021/03/31 19:33:55;;;;;;;;;;;;;;;;;;5048961;28;19920;-92
2021/03/31 19:36:21;;;;;;;;;;;;;;;;;;5050603;28;19916;-92
2021/03/31 19:38:53;;;;;;;;;;;;;;;;;;5062726;28;19920;-93
2021/03/31 19:41:22;;;;;;;;;;;;;;;;;;5051533;28;19923;-92
2021/03/31 19:43:48;;;;;;;;;;;;;;;;;;5042430;28;21239;-92
2021/03/31 19:46:17;;;;;;;;;;;;;;;;;;5049271;28;19916;-93
2021/03/31 19:48:43;;;;;;;;;;;;;;;;;;5054831;28;19916;-93
2021/03/31 19:51:16;;;;;;;;;;;;;;;;;;5077023;28;19920;-92
2021/03/31 19:53:44;;;;;;;;;;;;;;;;;;5055584;28;19913;-92
2021/03/31 19:56:13;;;;;;;;;;;;;;;;;;5054331;28;19924;-92
2021/03/31 19:58:51;;;;;;;;;;;;;;;;;;5050659;28;19931;-91
2021/03/31 20:01:17;;;;;;;;;;;;;;;;;;5047977;28;19919;-92
2021/03/31 20:03:47;;;;;;;;;;;;;;;;;;5049748;28;20514;-92
2021/03/31 20:06:20;;;;;;;;;;;;;;;;;;5046502;28;19956;-92
2021/03/31 20:08:49;;;;;;;;;;;;;;;;;;5049693;28;19920;-91
2021/03/31 20:11:17;;;;;;;;;;;;;;;;;;5045727;28;20732;-93
2021/03/31 20:13:43;;;;;;;;;;;;;;;;;;5041641;28;20384;-91
2021/03/31 20:16:09;;;;;;;;;;;;;;;;;;5046791;28;19967;-91
2021/03/31 20:18:36;;;;;;;;;;;;;;;;;;5045904;28;19964;-91
2021/03/31 20:21:02;;;;;;;;;;;;;;;;;;5044965;28;20364;-91
2021/03/31 20:23:28;;;;;;;;;;;;;;;;;;5043752;28;19916;-92
2021/03/31 20:25:54;;;;;;;;;;;;;;;;;;5046317;28;19932;-92
2021/03/31 20:28:21;;;;;;;;;;;;;;;;;;5043625;28;19916;-93
2021/03/31 20:30:47;;;;;;;;;;;;;;;;;;5043187;28;19916;-91
2021/03/31 20:33:39;;;;;;;;;;;;;;;;;;5041476;28;19944;-90
2021/03/31 20:36:09;;;;;;;;;;;;;;;;;;5045086;28;19916;-92
2021/03/31 20:38:35;;;;;;;;;;;;;;;;;;5048100;28;19935;-92
2021/03/31 20:41:01;;;;;;;;;;;;;;;;;;5043817;28;19969;-91
2021/03/31 20:43:29;;;;;;;;;;;;;;;;;;5045341;28;19964;-92
2021/03/31 20:45:55;;;;;;;;;;;;;;;;;;5044967;28;19973;-91
2021/03/31 20:48:30;;;;;;;;;;;;;;;;;;5048174;28;19959;-91
2021/03/31 20:50:56;;;;;;;;;;;;;;;;;;5055250;28;19955;-90
2021/03/31 20:53:23;;;;;;;;;;;;;;;;;;5050730;28;19916;-92
2021/03/31 20:55:49;;;;;;;;;;;;;;;;;;5049517;28;19923;-89
2021/03/31 20:58:15;;;;;;;;;;;;;;;;;;5060964;28;19921;-91
2021/03/31 21:00:41;;;;;;;;;;;;;;;;;;5060848;28;19943;-90
2021/03/31 21:03:07;;;;;;;;;;;;;;;;;;5053856;28;19913;-90
2021/03/31 21:05:34;;;;;;;;;;;;;;;;;;5066122;28;20021;-92
2021/03/31 21:08:00;;;;;;;;;;;;;;;;;;5064403;28;19924;-90
2021/03/31 21:10:28;;;;;;;;;;;;;;;;;;5067274;28;19912;-90
2021/03/31 21:12:54;;;;;;;;;;;;;;;;;;5070048;28;19913;-90
2021/03/31 21:15:24;;;;;;;;;;;;;;;;;;5069417;28;19921;-90
2021/03/31 21:17:56;;;;;;;;;;;;;;;;;;5070223;28;19959;-90
2021/03/31 21:20:22;;;;;;;;;;;;;;;;;;5070161;28;19904;-91
2021/03/31 21:22:50;;;;;;;;;;;;;;;;;;5067640;28;19913;-93
2021/03/31 21:33:51;;;;;;;;;;;;;;;;;;5089503;28;19920;-92
2021/03/31 21:36:22;;;;;;;;;;;;;;;;;;5052024;28;19912;-90
2021/03/31 21:38:59;;;;;;;;;;;;;;;;;;5088610;28;19905;-90
2021/03/31 21:41:28;;;;;;;;;;;;;;;;;;5070811;28;19913;-89
2021/03/31 21:43:55;;;;;;;;;;;;;;;;;;5075291;28;19919;-91
2021/03/31 21:46:27;;;;;;;;;;;;;;;;;;5072573;28;19968;-90
2021/03/31 21:54:50;;;;;;;;;;;;;;;;;;5050734;28;19960;-90
2021/03/31 21:57:41;;;;;;;;;;;;;;;;;;5050093;28;19913;-90
2021/03/31 22:08:38;;;;;;;;;;;;;;;;;;5089810;28;19935;-91
2021/03/31 22:11:10;;;;;;;;;;;;;;;;;;5091241;28;19897;-90
2021/03/31 22:16:28;;;;;;;;;;;;;;;;;;5090129;28;19947;-90
2021/03/31 22:18:58;;;;;;;;;;;;;;;;;;5088980;28;19920;-90
2021/03/31 22:30:05;;;;;;;;;;;;;;;;;;5095823;28;19961;-89
2021/03/31 22:32:31;;;;;;;;;;;;;;;;;;5094211;28;19917;-91
2021/03/31 22:35:02;;;;;;;;;;;;;;;;;;5089682;28;19919;-91
2021/03/31 22:40:20;;;;;;;;;;;;;;;;;;5147192;23;20380;-95
2021/03/31 22:42:48;;;;;;;;;;;;;;;;;;5073193;28;19912;-96
2021/03/31 22:45:34;;;;;;;;;;;;;;;;;;;;;
2021/03/31 22:48:07;;;;;;;;;;;;;;;;;;5076481;28;20331;-94
2021/03/31 22:50:33;;;;;;;;;;;;;;;;;;5057345;28;19912;-96
2021/03/31 22:53:03;;;;;;;;;;;;;;;;;;5061162;28;19925;-96
2021/03/31 22:55:36;;;;;;;;;;;;;;;;;;5066327;28;19901;-96
2021/03/31 22:58:02;;;;;;;;;;;;;;;;;;5063128;28;19932;-96
2021/03/31 23:00:39;;;;;;;;;;;;;;;;;;5060555;28;19972;-95
2021/03/31 23:03:06;;;;;;;;;;;;;;;;;;5049863;28;19909;-96
2021/03/31 23:05:35;;;;;;;;;;;;;;;;;;5046165;28;20015;-95